sensor_id;sensor_type;location;lat;lon;timestamp;P1;durP1;ratioP1;P2;durP2;ratioP2
1719;SDS011;857;52.872;9.692;2023-02-20T00:00:16;8.43;;;4.30;;
1719;SDS011;857;52.872;9.692;2023-02-20T00:02:44;6.47;;;4.40;;
1719;SDS011;857;52.872;9.692;2023-02-20T00:05:12;6.40;;;4.57;;
1719;SDS011;857;52.872;9.692;2023-02-20T00:07:39;6.30;;;4.60;;
1719;SDS011;857;52.872;9.692;2023-02-20T00:10:07;5.90;;;4.73;;
1719;SDS011;857;52.872;9.692;2023-02-20T00:12:35;7.03;;;4.50;;
1719;SDS011;857;52.872;9.692;2023-02-20T00:15:05;5.57;;;3.63;;
1719;SDS011;857;52.872;9.692;2023-02-20T00:17:32;6.80;;;4.33;;
1719;SDS011;857;52.872;9.692;2023-02-20T00:20:00;7.00;;;4.10;;
1719;SDS011;857;52.872;9.692;2023-02-20T00:22:28;5.67;;;4.37;;
1719;SDS011;857;52.872;9.692;2023-02-20T00:24:55;5.47;;;3.57;;
1719;SDS011;857;52.872;9.692;2023-02-20T00:27:23;4.67;;;3.40;;
1719;SDS011;857;52.872;9.692;2023-02-20T00:29:51;4.37;;;3.40;;
1719;SDS011;857;52.872;9.692;2023-02-20T00:32:20;4.40;;;3.10;;
1719;SDS011;857;52.872;9.692;2023-02-20T00:34:47;4.27;;;3.53;;
1719;SDS011;857;52.872;9.692;2023-02-20T00:37:15;5.00;;;3.63;;
1719;SDS011;857;52.872;9.692;2023-02-20T00:39:43;5.77;;;3.50;;
1719;SDS011;857;52.872;9.692;2023-02-20T00:42:11;4.73;;;3.20;;
1719;SDS011;857;52.872;9.692;2023-02-20T00:44:38;3.97;;;3.20;;
1719;SDS011;857;52.872;9.692;2023-02-20T00:47:06;4.67;;;3.60;;
1719;SDS011;857;52.872;9.692;2023-02-20T00:49:35;3.30;;;2.53;;
1719;SDS011;857;52.872;9.692;2023-02-20T00:52:12;7.60;;;3.90;;
1719;SDS011;857;52.872;9.692;2023-02-20T00:54:40;3.73;;;3.07;;
1719;SDS011;857;52.872;9.692;2023-02-20T00:57:08;3.93;;;3.17;;
1719;SDS011;857;52.872;9.692;2023-02-20T00:59:35;3.17;;;2.10;;
1719;SDS011;857;52.872;9.692;2023-02-20T01:02:03;4.23;;;3.57;;
1719;SDS011;857;52.872;9.692;2023-02-20T01:04:31;3.80;;;3.10;;
1719;SDS011;857;52.872;9.692;2023-02-20T01:07:00;4.37;;;2.80;;
1719;SDS011;857;52.872;9.692;2023-02-20T01:09:28;4.97;;;3.90;;
1719;SDS011;857;52.872;9.692;2023-02-20T01:11:55;3.97;;;3.53;;
1719;SDS011;857;52.872;9.692;2023-02-20T01:14:23;5.57;;;4.13;;
1719;SDS011;857;52.872;9.692;2023-02-20T01:16:52;4.90;;;3.07;;
1719;SDS011;857;52.872;9.692;2023-02-20T01:19:20;5.23;;;4.23;;
1719;SDS011;857;52.872;9.692;2023-02-20T01:21:48;6.07;;;4.27;;
1719;SDS011;857;52.872;9.692;2023-02-20T01:24:18;5.03;;;4.10;;
1719;SDS011;857;52.872;9.692;2023-02-20T01:26:47;7.17;;;4.20;;
1719;SDS011;857;52.872;9.692;2023-02-20T01:29:15;6.77;;;4.80;;
1719;SDS011;857;52.872;9.692;2023-02-20T01:31:45;5.63;;;4.43;;
1719;SDS011;857;52.872;9.692;2023-02-20T01:34:14;7.30;;;4.73;;
1719;SDS011;857;52.872;9.692;2023-02-20T01:36:46;6.67;;;4.43;;
1719;SDS011;857;52.872;9.692;2023-02-20T01:39:15;8.80;;;5.70;;
1719;SDS011;857;52.872;9.692;2023-02-20T01:41:44;6.40;;;5.10;;
1719;SDS011;857;52.872;9.692;2023-02-20T01:44:17;6.63;;;4.73;;
1719;SDS011;857;52.872;9.692;2023-02-20T01:46:49;6.13;;;4.33;;
1719;SDS011;857;52.872;9.692;2023-02-20T01:49:25;10.33;;;4.30;;
1719;SDS011;857;52.872;9.692;2023-02-20T01:51:56;6.97;;;4.80;;
1719;SDS011;857;52.872;9.692;2023-02-20T01:54:24;7.27;;;4.90;;
1719;SDS011;857;52.872;9.692;2023-02-20T01:56:55;5.37;;;3.50;;
1719;SDS011;857;52.872;9.692;2023-02-20T01:59:23;5.87;;;4.43;;
1719;SDS011;857;52.872;9.692;2023-02-20T02:01:51;7.90;;;6.00;;
1719;SDS011;857;52.872;9.692;2023-02-20T02:04:19;8.77;;;5.37;;
1719;SDS011;857;52.872;9.692;2023-02-20T02:06:48;7.50;;;5.10;;
1719;SDS011;857;52.872;9.692;2023-02-20T02:09:17;6.70;;;5.03;;
1719;SDS011;857;52.872;9.692;2023-02-20T02:11:48;6.63;;;5.13;;
1719;SDS011;857;52.872;9.692;2023-02-20T02:14:17;6.13;;;4.20;;
1719;SDS011;857;52.872;9.692;2023-02-20T02:16:48;8.37;;;5.87;;
1719;SDS011;857;52.872;9.692;2023-02-20T02:19:22;8.00;;;5.90;;
1719;SDS011;857;52.872;9.692;2023-02-20T02:22:01;9.37;;;6.03;;
1719;SDS011;857;52.872;9.692;2023-02-20T02:38:30;8.80;;;6.30;;
1719;SDS011;857;52.872;9.692;2023-02-20T02:41:00;7.57;;;5.87;;
1719;SDS011;857;52.872;9.692;2023-02-20T02:43:34;7.10;;;4.67;;
1719;SDS011;857;52.872;9.692;2023-02-20T02:46:04;9.50;;;6.30;;
1719;SDS011;857;52.872;9.692;2023-02-20T02:48:34;6.33;;;5.07;;
1719;SDS011;857;52.872;9.692;2023-02-20T02:51:04;8.23;;;5.57;;
1719;SDS011;857;52.872;9.692;2023-02-20T02:53:36;9.93;;;5.70;;
1719;SDS011;857;52.872;9.692;2023-02-20T02:56:04;7.20;;;4.60;;
1719;SDS011;857;52.872;9.692;2023-02-20T02:58:57;7.43;;;5.60;;
1719;SDS011;857;52.872;9.692;2023-02-20T03:01:24;6.37;;;5.70;;
1719;SDS011;857;52.872;9.692;2023-02-20T03:03:53;7.77;;;5.60;;
1719;SDS011;857;52.872;9.692;2023-02-20T03:06:21;7.60;;;5.20;;
1719;SDS011;857;52.872;9.692;2023-02-20T03:08:55;6.87;;;5.40;;
1719;SDS011;857;52.872;9.692;2023-02-20T03:11:24;6.17;;;4.43;;
1719;SDS011;857;52.872;9.692;2023-02-20T03:13:56;6.77;;;5.47;;
1719;SDS011;857;52.872;9.692;2023-02-20T03:16:45;4.70;;;3.77;;
1719;SDS011;857;52.872;9.692;2023-02-20T03:19:18;8.20;;;5.50;;
1719;SDS011;857;52.872;9.692;2023-02-20T03:21:47;6.33;;;4.77;;
1719;SDS011;857;52.872;9.692;2023-02-20T03:24:15;8.13;;;5.70;;
1719;SDS011;857;52.872;9.692;2023-02-20T03:26:43;8.37;;;5.90;;
1719;SDS011;857;52.872;9.692;2023-02-20T03:29:13;5.50;;;4.10;;
1719;SDS011;857;52.872;9.692;2023-02-20T03:31:43;6.03;;;4.47;;
1719;SDS011;857;52.872;9.692;2023-02-20T03:34:15;6.97;;;5.30;;
1719;SDS011;857;52.872;9.692;2023-02-20T03:37:04;7.30;;;5.10;;
1719;SDS011;857;52.872;9.692;2023-02-20T03:39:51;9.27;;;6.27;;
1719;SDS011;857;52.872;9.692;2023-02-20T03:42:38;7.03;;;5.47;;
1719;SDS011;857;52.872;9.692;2023-02-20T03:45:30;10.00;;;6.30;;
1719;SDS011;857;52.872;9.692;2023-02-20T03:47:59;4.27;;;2.77;;
1719;SDS011;857;52.872;9.692;2023-02-20T03:50:33;7.83;;;5.90;;
1719;SDS011;857;52.872;9.692;2023-02-20T03:53:22;6.87;;;5.27;;
1719;SDS011;857;52.872;9.692;2023-02-20T03:58:24;9.93;;;7.07;;
1719;SDS011;857;52.872;9.692;2023-02-20T04:00:57;10.83;;;6.47;;
1719;SDS011;857;52.872;9.692;2023-02-20T04:03:28;8.60;;;4.63;;
1719;SDS011;857;52.872;9.692;2023-02-20T04:05:59;8.97;;;6.60;;
1719;SDS011;857;52.872;9.692;2023-02-20T04:08:32;9.67;;;6.47;;
1719;SDS011;857;52.872;9.692;2023-02-20T04:11:05;8.20;;;5.00;;
1719;SDS011;857;52.872;9.692;2023-02-20T04:13:34;8.70;;;6.30;;
1719;SDS011;857;52.872;9.692;2023-02-20T04:16:03;12.27;;;6.33;;
1719;SDS011;857;52.872;9.692;2023-02-20T04:18:31;8.87;;;5.63;;
1719;SDS011;857;52.872;9.692;2023-02-20T04:21:04;11.30;;;7.50;;
1719;SDS011;857;52.872;9.692;2023-02-20T04:23:38;11.63;;;7.20;;
1719;SDS011;857;52.872;9.692;2023-02-20T04:26:08;11.17;;;7.37;;
1719;SDS011;857;52.872;9.692;2023-02-20T04:28:41;9.13;;;6.40;;
1719;SDS011;857;52.872;9.692;2023-02-20T04:31:09;9.20;;;6.50;;
1719;SDS011;857;52.872;9.692;2023-02-20T04:33:38;10.20;;;6.40;;
1719;SDS011;857;52.872;9.692;2023-02-20T04:36:13;11.50;;;6.93;;
1719;SDS011;857;52.872;9.692;2023-02-20T04:38:41;11.03;;;7.00;;
1719;SDS011;857;52.872;9.692;2023-02-20T04:41:12;11.97;;;6.90;;
1719;SDS011;857;52.872;9.692;2023-02-20T04:43:40;8.30;;;4.53;;
1719;SDS011;857;52.872;9.692;2023-02-20T04:46:08;11.57;;;7.17;;
1719;SDS011;857;52.872;9.692;2023-02-20T04:48:36;10.50;;;6.80;;
1719;SDS011;857;52.872;9.692;2023-02-20T04:51:04;10.47;;;7.00;;
1719;SDS011;857;52.872;9.692;2023-02-20T04:53:34;10.90;;;7.20;;
1719;SDS011;857;52.872;9.692;2023-02-20T04:56:02;10.70;;;7.27;;
1719;SDS011;857;52.872;9.692;2023-02-20T04:58:32;9.53;;;6.60;;
1719;SDS011;857;52.872;9.692;2023-02-20T05:01:08;9.80;;;6.43;;
1719;SDS011;857;52.872;9.692;2023-02-20T05:03:35;12.93;;;8.40;;
1719;SDS011;857;52.872;9.692;2023-02-20T05:06:03;13.07;;;8.27;;
1719;SDS011;857;52.872;9.692;2023-02-20T05:08:31;8.73;;;6.17;;
1719;SDS011;857;52.872;9.692;2023-02-20T05:11:00;13.60;;;7.97;;
1719;SDS011;857;52.872;9.692;2023-02-20T05:13:27;11.53;;;8.10;;
1719;SDS011;857;52.872;9.692;2023-02-20T05:15:55;10.83;;;6.37;;
1719;SDS011;857;52.872;9.692;2023-02-20T05:18:23;12.40;;;8.43;;
1719;SDS011;857;52.872;9.692;2023-02-20T05:20:51;8.67;;;5.87;;
1719;SDS011;857;52.872;9.692;2023-02-20T05:23:37;12.20;;;7.40;;
1719;SDS011;857;52.872;9.692;2023-02-20T05:26:08;15.43;;;9.23;;
1719;SDS011;857;52.872;9.692;2023-02-20T05:28:36;12.03;;;7.63;;
1719;SDS011;857;52.872;9.692;2023-02-20T05:31:04;12.93;;;8.00;;
1719;SDS011;857;52.872;9.692;2023-02-20T05:33:32;10.60;;;7.13;;
1719;SDS011;857;52.872;9.692;2023-02-20T05:36:00;19.00;;;10.07;;
1719;SDS011;857;52.872;9.692;2023-02-20T05:38:27;13.97;;;8.93;;
1719;SDS011;857;52.872;9.692;2023-02-20T05:40:55;15.80;;;10.33;;
1719;SDS011;857;52.872;9.692;2023-02-20T05:43:24;14.47;;;10.50;;
1719;SDS011;857;52.872;9.692;2023-02-20T05:45:52;19.10;;;11.50;;
1719;SDS011;857;52.872;9.692;2023-02-20T05:48:19;16.00;;;10.27;;
1719;SDS011;857;52.872;9.692;2023-02-20T05:50:47;12.40;;;8.43;;
1719;SDS011;857;52.872;9.692;2023-02-20T05:53:16;14.50;;;9.90;;
1719;SDS011;857;52.872;9.692;2023-02-20T05:55:43;16.53;;;10.53;;
1719;SDS011;857;52.872;9.692;2023-02-20T05:58:11;14.70;;;8.90;;
1719;SDS011;857;52.872;9.692;2023-02-20T06:00:40;13.73;;;8.30;;
1719;SDS011;857;52.872;9.692;2023-02-20T06:03:08;15.60;;;10.50;;
1719;SDS011;857;52.872;9.692;2023-02-20T06:05:36;8.70;;;6.13;;
1719;SDS011;857;52.872;9.692;2023-02-20T06:08:03;13.13;;;6.80;;
1719;SDS011;857;52.872;9.692;2023-02-20T06:10:31;17.53;;;10.20;;
1719;SDS011;857;52.872;9.692;2023-02-20T06:12:59;15.27;;;9.90;;
1719;SDS011;857;52.872;9.692;2023-02-20T06:15:27;10.07;;;6.30;;
1719;SDS011;857;52.872;9.692;2023-02-20T06:17:56;11.77;;;8.00;;
1719;SDS011;857;52.872;9.692;2023-02-20T06:20:24;13.20;;;8.37;;
1719;SDS011;857;52.872;9.692;2023-02-20T06:22:51;14.40;;;9.80;;
1719;SDS011;857;52.872;9.692;2023-02-20T06:25:19;13.83;;;9.07;;
1719;SDS011;857;52.872;9.692;2023-02-20T06:27:47;18.13;;;10.30;;
1719;SDS011;857;52.872;9.692;2023-02-20T06:30:15;15.80;;;10.67;;
1719;SDS011;857;52.872;9.692;2023-02-20T06:32:42;15.20;;;9.37;;
1719;SDS011;857;52.872;9.692;2023-02-20T06:35:11;14.27;;;10.30;;
1719;SDS011;857;52.872;9.692;2023-02-20T06:37:40;14.53;;;10.20;;
1719;SDS011;857;52.872;9.692;2023-02-20T06:40:08;12.90;;;9.20;;
1719;SDS011;857;52.872;9.692;2023-02-20T06:42:36;14.17;;;9.27;;
1719;SDS011;857;52.872;9.692;2023-02-20T06:45:04;19.00;;;11.80;;
1719;SDS011;857;52.872;9.692;2023-02-20T06:47:31;13.47;;;10.20;;
1719;SDS011;857;52.872;9.692;2023-02-20T06:49:59;15.13;;;10.30;;
1719;SDS011;857;52.872;9.692;2023-02-20T06:52:28;18.07;;;9.60;;
1719;SDS011;857;52.872;9.692;2023-02-20T06:54:56;17.73;;;11.63;;
1719;SDS011;857;52.872;9.692;2023-02-20T06:57:23;15.00;;;9.70;;
1719;SDS011;857;52.872;9.692;2023-02-20T06:59:51;18.30;;;11.23;;
1719;SDS011;857;52.872;9.692;2023-02-20T07:02:19;8.73;;;5.97;;
1719;SDS011;857;52.872;9.692;2023-02-20T07:04:47;17.80;;;11.47;;
1719;SDS011;857;52.872;9.692;2023-02-20T07:07:14;15.17;;;10.70;;
1719;SDS011;857;52.872;9.692;2023-02-20T07:09:44;14.20;;;9.53;;
1719;SDS011;857;52.872;9.692;2023-02-20T07:12:11;17.00;;;11.23;;
1719;SDS011;857;52.872;9.692;2023-02-20T07:14:39;18.57;;;12.13;;
1719;SDS011;857;52.872;9.692;2023-02-20T07:17:07;17.97;;;11.10;;
1719;SDS011;857;52.872;9.692;2023-02-20T07:19:35;17.83;;;11.13;;
1719;SDS011;857;52.872;9.692;2023-02-20T07:22:02;11.43;;;8.67;;
1719;SDS011;857;52.872;9.692;2023-02-20T07:24:30;15.30;;;9.33;;
1719;SDS011;857;52.872;9.692;2023-02-20T07:27:01;13.37;;;7.23;;
1719;SDS011;857;52.872;9.692;2023-02-20T07:29:29;13.47;;;8.60;;
1719;SDS011;857;52.872;9.692;2023-02-20T07:31:57;18.53;;;11.83;;
1719;SDS011;857;52.872;9.692;2023-02-20T07:34:24;21.90;;;13.13;;
1719;SDS011;857;52.872;9.692;2023-02-20T07:36:52;20.27;;;14.43;;
1719;SDS011;857;52.872;9.692;2023-02-20T07:39:20;14.90;;;11.40;;
1719;SDS011;857;52.872;9.692;2023-02-20T07:41:49;21.00;;;14.70;;
1719;SDS011;857;52.872;9.692;2023-02-20T07:44:37;22.93;;;14.83;;
1719;SDS011;857;52.872;9.692;2023-02-20T07:47:05;14.50;;;10.63;;
1719;SDS011;857;52.872;9.692;2023-02-20T07:49:32;20.73;;;15.00;;
1719;SDS011;857;52.872;9.692;2023-02-20T07:52:00;14.97;;;10.70;;
1719;SDS011;857;52.872;9.692;2023-02-20T07:54:28;15.57;;;10.37;;
1719;SDS011;857;52.872;9.692;2023-02-20T07:56:55;23.00;;;15.13;;
1719;SDS011;857;52.872;9.692;2023-02-20T07:59:23;21.63;;;16.00;;
1719;SDS011;857;52.872;9.692;2023-02-20T08:01:52;17.83;;;13.33;;
1719;SDS011;857;52.872;9.692;2023-02-20T08:04:20;23.53;;;16.17;;
1719;SDS011;857;52.872;9.692;2023-02-20T08:06:47;21.77;;;13.30;;
1719;SDS011;857;52.872;9.692;2023-02-20T08:09:15;24.10;;;16.43;;
1719;SDS011;857;52.872;9.692;2023-02-20T08:11:43;20.47;;;12.83;;
1719;SDS011;857;52.872;9.692;2023-02-20T08:14:11;28.57;;;19.10;;
1719;SDS011;857;52.872;9.692;2023-02-20T08:16:39;21.50;;;16.90;;
1719;SDS011;857;52.872;9.692;2023-02-20T08:19:08;24.63;;;15.03;;
1719;SDS011;857;52.872;9.692;2023-02-20T08:21:36;26.07;;;16.07;;
1719;SDS011;857;52.872;9.692;2023-02-20T08:24:04;23.47;;;16.30;;
1719;SDS011;857;52.872;9.692;2023-02-20T08:26:32;24.10;;;17.90;;
1719;SDS011;857;52.872;9.692;2023-02-20T08:28:59;27.23;;;17.07;;
1719;SDS011;857;52.872;9.692;2023-02-20T08:31:27;24.83;;;18.20;;
1719;SDS011;857;52.872;9.692;2023-02-20T08:33:55;28.73;;;17.37;;
1719;SDS011;857;52.872;9.692;2023-02-20T08:36:24;26.70;;;17.50;;
1719;SDS011;857;52.872;9.692;2023-02-20T08:38:51;23.73;;;14.40;;
1719;SDS011;857;52.872;9.692;2023-02-20T08:41:19;24.03;;;16.70;;
1719;SDS011;857;52.872;9.692;2023-02-20T08:43:47;18.53;;;12.83;;
1719;SDS011;857;52.872;9.692;2023-02-20T08:46:14;24.93;;;16.40;;
1719;SDS011;857;52.872;9.692;2023-02-20T08:48:42;24.50;;;15.10;;
1719;SDS011;857;52.872;9.692;2023-02-20T08:51:10;26.03;;;16.83;;
1719;SDS011;857;52.872;9.692;2023-02-20T08:53:39;25.00;;;16.33;;
1719;SDS011;857;52.872;9.692;2023-02-20T08:56:07;21.27;;;14.40;;
1719;SDS011;857;52.872;9.692;2023-02-20T08:58:37;26.63;;;16.90;;
1719;SDS011;857;52.872;9.692;2023-02-20T09:01:05;28.57;;;15.50;;
1719;SDS011;857;52.872;9.692;2023-02-20T09:03:32;27.60;;;17.30;;
1719;SDS011;857;52.872;9.692;2023-02-20T09:06:03;30.90;;;17.20;;
1719;SDS011;857;52.872;9.692;2023-02-20T09:08:31;28.00;;;17.33;;
1719;SDS011;857;52.872;9.692;2023-02-20T09:11:00;27.20;;;17.87;;
1719;SDS011;857;52.872;9.692;2023-02-20T09:13:28;26.87;;;15.50;;
1719;SDS011;857;52.872;9.692;2023-02-20T09:15:55;23.40;;;15.60;;
1719;SDS011;857;52.872;9.692;2023-02-20T09:18:23;25.67;;;16.90;;
1719;SDS011;857;52.872;9.692;2023-02-20T09:20:51;26.60;;;14.83;;
1719;SDS011;857;52.872;9.692;2023-02-20T09:23:18;27.60;;;17.67;;
1719;SDS011;857;52.872;9.692;2023-02-20T09:25:48;31.60;;;19.40;;
1719;SDS011;857;52.872;9.692;2023-02-20T09:28:18;23.90;;;14.67;;
1719;SDS011;857;52.872;9.692;2023-02-20T09:30:46;28.77;;;18.00;;
1719;SDS011;857;52.872;9.692;2023-02-20T09:33:14;31.10;;;18.40;;
1719;SDS011;857;52.872;9.692;2023-02-20T09:35:41;35.27;;;21.13;;
1719;SDS011;857;52.872;9.692;2023-02-20T09:38:09;26.80;;;18.97;;
1719;SDS011;857;52.872;9.692;2023-02-20T09:40:37;30.63;;;18.97;;
1719;SDS011;857;52.872;9.692;2023-02-20T09:43:08;38.40;;;21.20;;
1719;SDS011;857;52.872;9.692;2023-02-20T09:45:40;22.13;;;13.53;;
1719;SDS011;857;52.872;9.692;2023-02-20T09:48:12;31.90;;;16.80;;
1719;SDS011;857;52.872;9.692;2023-02-20T09:50:46;30.00;;;18.60;;
1719;SDS011;857;52.872;9.692;2023-02-20T09:53:17;26.70;;;17.50;;
1719;SDS011;857;52.872;9.692;2023-02-20T09:55:47;29.47;;;18.63;;
1719;SDS011;857;52.872;9.692;2023-02-20T09:58:19;29.07;;;16.60;;
1719;SDS011;857;52.872;9.692;2023-02-20T10:00:50;33.30;;;18.30;;
1719;SDS011;857;52.872;9.692;2023-02-20T10:03:20;31.60;;;19.63;;
1719;SDS011;857;52.872;9.692;2023-02-20T10:05:49;21.17;;;13.50;;
1719;SDS011;857;52.872;9.692;2023-02-20T10:08:18;27.37;;;18.13;;
1719;SDS011;857;52.872;9.692;2023-02-20T10:10:47;25.80;;;14.97;;
1719;SDS011;857;52.872;9.692;2023-02-20T10:13:26;35.30;;;18.63;;
1719;SDS011;857;52.872;9.692;2023-02-20T10:16:00;25.83;;;16.83;;
1719;SDS011;857;52.872;9.692;2023-02-20T10:18:32;27.80;;;16.43;;
1719;SDS011;857;52.872;9.692;2023-02-20T10:21:02;31.10;;;19.57;;
1719;SDS011;857;52.872;9.692;2023-02-20T10:23:36;32.20;;;19.00;;
1719;SDS011;857;52.872;9.692;2023-02-20T10:26:06;36.77;;;21.37;;
1719;SDS011;857;52.872;9.692;2023-02-20T10:28:34;31.43;;;18.40;;
1719;SDS011;857;52.872;9.692;2023-02-20T10:31:05;26.37;;;14.60;;
1719;SDS011;857;52.872;9.692;2023-02-20T10:33:37;26.67;;;16.10;;
1719;SDS011;857;52.872;9.692;2023-02-20T10:36:07;27.10;;;16.87;;
1719;SDS011;857;52.872;9.692;2023-02-20T10:38:37;28.27;;;16.67;;
1719;SDS011;857;52.872;9.692;2023-02-20T10:41:07;31.30;;;18.50;;
1719;SDS011;857;52.872;9.692;2023-02-20T10:43:38;32.97;;;19.47;;
1719;SDS011;857;52.872;9.692;2023-02-20T10:46:09;32.77;;;18.07;;
1719;SDS011;857;52.872;9.692;2023-02-20T10:48:40;32.73;;;18.93;;
1719;SDS011;857;52.872;9.692;2023-02-20T10:51:10;28.90;;;16.67;;
1719;SDS011;857;52.872;9.692;2023-02-20T10:53:42;32.43;;;17.03;;
1719;SDS011;857;52.872;9.692;2023-02-20T10:56:12;25.57;;;16.40;;
1719;SDS011;857;52.872;9.692;2023-02-20T10:58:44;30.47;;;17.80;;
1719;SDS011;857;52.872;9.692;2023-02-20T11:01:17;27.37;;;15.73;;
1719;SDS011;857;52.872;9.692;2023-02-20T11:03:46;29.70;;;20.10;;
1719;SDS011;857;52.872;9.692;2023-02-20T11:06:15;33.47;;;15.17;;
1719;SDS011;857;52.872;9.692;2023-02-20T11:08:44;27.47;;;17.03;;
1719;SDS011;857;52.872;9.692;2023-02-20T11:11:26;34.57;;;18.63;;
1719;SDS011;857;52.872;9.692;2023-02-20T11:13:56;32.13;;;16.50;;
1719;SDS011;857;52.872;9.692;2023-02-20T11:16:27;30.40;;;17.00;;
1719;SDS011;857;52.872;9.692;2023-02-20T11:19:00;31.93;;;17.53;;
1719;SDS011;857;52.872;9.692;2023-02-20T11:21:32;33.47;;;17.47;;
1719;SDS011;857;52.872;9.692;2023-02-20T11:24:08;25.70;;;16.57;;
1719;SDS011;857;52.872;9.692;2023-02-20T11:26:43;27.70;;;14.40;;
1719;SDS011;857;52.872;9.692;2023-02-20T11:29:12;25.87;;;14.60;;
1719;SDS011;857;52.872;9.692;2023-02-20T11:31:43;26.53;;;16.17;;
1719;SDS011;857;52.872;9.692;2023-02-20T11:34:13;36.77;;;18.30;;
1719;SDS011;857;52.872;9.692;2023-02-20T11:36:43;30.60;;;17.67;;
1719;SDS011;857;52.872;9.692;2023-02-20T11:39:21;26.20;;;14.17;;
1719;SDS011;857;52.872;9.692;2023-02-20T11:42:02;25.10;;;14.30;;
1719;SDS011;857;52.872;9.692;2023-02-20T11:44:30;26.83;;;16.70;;
1719;SDS011;857;52.872;9.692;2023-02-20T11:47:20;32.17;;;17.10;;
1719;SDS011;857;52.872;9.692;2023-02-20T11:49:48;28.80;;;17.00;;
1719;SDS011;857;52.872;9.692;2023-02-20T11:52:16;26.00;;;15.10;;
1719;SDS011;857;52.872;9.692;2023-02-20T11:54:45;32.23;;;16.53;;
1719;SDS011;857;52.872;9.692;2023-02-20T11:57:21;30.27;;;16.13;;
1719;SDS011;857;52.872;9.692;2023-02-20T11:59:51;34.43;;;16.10;;
1719;SDS011;857;52.872;9.692;2023-02-20T12:02:48;26.43;;;17.00;;
1719;SDS011;857;52.872;9.692;2023-02-20T12:05:16;29.70;;;16.47;;
1719;SDS011;857;52.872;9.692;2023-02-20T12:07:44;27.27;;;14.27;;
1719;SDS011;857;52.872;9.692;2023-02-20T12:10:24;26.83;;;15.43;;
1719;SDS011;857;52.872;9.692;2023-02-20T12:12:54;22.90;;;14.57;;
1719;SDS011;857;52.872;9.692;2023-02-20T12:15:23;24.90;;;14.17;;
1719;SDS011;857;52.872;9.692;2023-02-20T12:17:57;24.80;;;15.80;;
1719;SDS011;857;52.872;9.692;2023-02-20T12:20:27;30.27;;;15.30;;
1719;SDS011;857;52.872;9.692;2023-02-20T12:22:59;27.27;;;15.10;;
1719;SDS011;857;52.872;9.692;2023-02-20T12:25:31;30.93;;;15.13;;
1719;SDS011;857;52.872;9.692;2023-02-20T12:28:06;26.83;;;14.00;;
1719;SDS011;857;52.872;9.692;2023-02-20T12:30:39;25.10;;;14.10;;
1719;SDS011;857;52.872;9.692;2023-02-20T12:33:25;24.70;;;14.27;;
1719;SDS011;857;52.872;9.692;2023-02-20T12:35:58;20.60;;;12.93;;
1719;SDS011;857;52.872;9.692;2023-02-20T12:38:31;24.80;;;13.07;;
1719;SDS011;857;52.872;9.692;2023-02-20T12:41:11;21.70;;;12.10;;
1719;SDS011;857;52.872;9.692;2023-02-20T12:43:45;21.13;;;12.40;;
1719;SDS011;857;52.872;9.692;2023-02-20T12:46:15;21.93;;;13.43;;
1719;SDS011;857;52.872;9.692;2023-02-20T12:48:49;18.30;;;10.90;;
1719;SDS011;857;52.872;9.692;2023-02-20T12:51:23;17.03;;;11.63;;
1719;SDS011;857;52.872;9.692;2023-02-20T12:54:06;16.83;;;10.87;;
1719;SDS011;857;52.872;9.692;2023-02-20T12:56:38;16.63;;;11.93;;
1719;SDS011;857;52.872;9.692;2023-02-20T12:59:12;19.50;;;10.90;;
1719;SDS011;857;52.872;9.692;2023-02-20T13:01:43;17.20;;;12.60;;
1719;SDS011;857;52.872;9.692;2023-02-20T13:04:18;16.70;;;10.47;;
1719;SDS011;857;52.872;9.692;2023-02-20T13:06:50;14.13;;;10.00;;
1719;SDS011;857;52.872;9.692;2023-02-20T13:12:09;16.60;;;9.23;;
1719;SDS011;857;52.872;9.692;2023-02-20T13:14:51;13.90;;;9.00;;
1719;SDS011;857;52.872;9.692;2023-02-20T13:17:23;12.67;;;8.40;;
1719;SDS011;857;52.872;9.692;2023-02-20T13:19:55;16.53;;;9.70;;
1719;SDS011;857;52.872;9.692;2023-02-20T13:22:24;16.27;;;9.17;;
1719;SDS011;857;52.872;9.692;2023-02-20T13:24:52;13.83;;;8.93;;
1719;SDS011;857;52.872;9.692;2023-02-20T13:33:42;15.77;;;11.30;;
1719;SDS011;857;52.872;9.692;2023-02-20T13:36:17;15.33;;;9.90;;
1719;SDS011;857;52.872;9.692;2023-02-20T13:41:40;14.73;;;9.33;;
1719;SDS011;857;52.872;9.692;2023-02-20T13:44:31;17.70;;;10.70;;
1719;SDS011;857;52.872;9.692;2023-02-20T13:46:59;14.70;;;8.97;;
1719;SDS011;857;52.872;9.692;2023-02-20T13:52:37;15.27;;;8.30;;
1719;SDS011;857;52.872;9.692;2023-02-20T13:55:21;15.67;;;9.07;;
1719;SDS011;857;52.872;9.692;2023-02-20T13:57:50;14.63;;;10.03;;
1719;SDS011;857;52.872;9.692;2023-02-20T14:00:24;16.00;;;9.30;;
1719;SDS011;857;52.872;9.692;2023-02-20T14:02:52;19.30;;;10.90;;
1719;SDS011;857;52.872;9.692;2023-02-20T14:05:20;14.80;;;8.70;;
1719;SDS011;857;52.872;9.692;2023-02-20T14:07:50;15.47;;;9.00;;
1719;SDS011;857;52.872;9.692;2023-02-20T14:10:18;15.17;;;9.87;;
1719;SDS011;857;52.872;9.692;2023-02-20T14:12:51;16.90;;;9.70;;
1719;SDS011;857;52.872;9.692;2023-02-20T14:15:19;15.90;;;9.37;;
1719;SDS011;857;52.872;9.692;2023-02-20T14:17:48;12.33;;;7.20;;
1719;SDS011;857;52.872;9.692;2023-02-20T14:20:19;14.73;;;9.27;;
1719;SDS011;857;52.872;9.692;2023-02-20T14:22:50;13.63;;;9.57;;
1719;SDS011;857;52.872;9.692;2023-02-20T14:25:34;12.23;;;9.23;;
1719;SDS011;857;52.872;9.692;2023-02-20T14:28:03;15.27;;;10.40;;
1719;SDS011;857;52.872;9.692;2023-02-20T14:30:31;17.23;;;10.60;;
1719;SDS011;857;52.872;9.692;2023-02-20T14:32:58;14.40;;;9.27;;
1719;SDS011;857;52.872;9.692;2023-02-20T14:35:30;15.93;;;10.07;;
1719;SDS011;857;52.872;9.692;2023-02-20T14:40:52;18.13;;;11.20;;
1719;SDS011;857;52.872;9.692;2023-02-20T14:43:20;16.80;;;10.67;;
1719;SDS011;857;52.872;9.692;2023-02-20T14:45:56;13.97;;;8.63;;
1719;SDS011;857;52.872;9.692;2023-02-20T14:48:26;13.97;;;8.60;;
1719;SDS011;857;52.872;9.692;2023-02-20T14:51:08;15.23;;;8.67;;
1719;SDS011;857;52.872;9.692;2023-02-20T14:53:39;12.70;;;8.20;;
1719;SDS011;857;52.872;9.692;2023-02-20T14:56:12;9.43;;;6.90;;
1719;SDS011;857;52.872;9.692;2023-02-20T14:58:41;12.80;;;8.80;;
1719;SDS011;857;52.872;9.692;2023-02-20T15:01:13;16.27;;;9.50;;
1719;SDS011;857;52.872;9.692;2023-02-20T15:03:40;13.67;;;9.03;;
1719;SDS011;857;52.872;9.692;2023-02-20T15:06:09;14.63;;;7.97;;
1719;SDS011;857;52.872;9.692;2023-02-20T15:08:38;16.93;;;9.93;;
1719;SDS011;857;52.872;9.692;2023-02-20T15:11:07;15.43;;;9.17;;
1719;SDS011;857;52.872;9.692;2023-02-20T15:13:37;12.30;;;8.53;;
1719;SDS011;857;52.872;9.692;2023-02-20T15:16:07;15.57;;;9.90;;
1719;SDS011;857;52.872;9.692;2023-02-20T15:18:39;15.67;;;10.00;;
1719;SDS011;857;52.872;9.692;2023-02-20T15:21:08;17.93;;;10.10;;
1719;SDS011;857;52.872;9.692;2023-02-20T15:23:36;18.13;;;10.10;;
1719;SDS011;857;52.872;9.692;2023-02-20T15:31:45;10.20;;;7.40;;
1719;SDS011;857;52.872;9.692;2023-02-20T15:34:18;17.10;;;10.90;;
1719;SDS011;857;52.872;9.692;2023-02-20T15:36:47;15.30;;;10.63;;
1719;SDS011;857;52.872;9.692;2023-02-20T15:39:15;16.03;;;8.93;;
1719;SDS011;857;52.872;9.692;2023-02-20T15:41:44;15.10;;;9.43;;
1719;SDS011;857;52.872;9.692;2023-02-20T15:44:12;14.37;;;8.97;;
1719;SDS011;857;52.872;9.692;2023-02-20T15:46:39;14.27;;;9.33;;
1719;SDS011;857;52.872;9.692;2023-02-20T15:49:08;13.50;;;9.53;;
1719;SDS011;857;52.872;9.692;2023-02-20T15:51:38;15.63;;;9.30;;
1719;SDS011;857;52.872;9.692;2023-02-20T15:54:06;15.87;;;10.20;;
1719;SDS011;857;52.872;9.692;2023-02-20T15:56:38;13.80;;;9.63;;
1719;SDS011;857;52.872;9.692;2023-02-20T15:59:06;10.13;;;7.07;;
1719;SDS011;857;52.872;9.692;2023-02-20T16:01:36;16.60;;;9.00;;
1719;SDS011;857;52.872;9.692;2023-02-20T16:04:04;14.00;;;9.77;;
1719;SDS011;857;52.872;9.692;2023-02-20T16:06:33;17.57;;;9.67;;
1719;SDS011;857;52.872;9.692;2023-02-20T16:09:02;21.10;;;10.70;;
1719;SDS011;857;52.872;9.692;2023-02-20T16:11:31;16.77;;;11.20;;